Time;durP1;ratioP1;P1;durP2;ratioP2;P2;SDS_P1;SDS_P2;PMS_P1;PMS_P2;Temp;Humidity;BMP_temperature;BMP_pressure;BME280_temperature;BME280_humidity;BME280_pressure;Samples;Min_cycle;Max_cycle;Signal;HPM_P1;HPM_P2
2023/07/08 00:00:14;;;;;;;;;;;22.70;50.60;;;;;;5073242;28;19913;-36
2023/07/08 00:02:41;;;;;;;;;;;22.70;50.70;;;;;;5073210;28;19913;-35
2023/07/08 00:05:07;;;;;;;;;;;22.60;50.80;;;;;;5073260;28;19966;-36
2023/07/08 00:07:33;;;;;;;;;;;22.60;50.80;;;;;;5073150;28;19969;-35
2023/07/08 00:09:58;;;;;;;;;;;22.60;50.90;;;;;;5073093;28;19916;-36
2023/07/08 00:12:24;;;;;;;;;;;22.60;51.00;;;;;;5071610;28;20367;-34
2023/07/08 00:14:49;;;;;;;;;;;22.50;51.10;;;;;;5073004;28;20191;-34
2023/07/08 00:17:15;;;;;;;;;;;22.50;51.10;;;;;;5072898;28;19920;-35
2023/07/08 00:19:40;;;;;;;;;;;22.50;51.20;;;;;;5072959;28;19912;-43
2023/07/08 00:22:13;;;;;;;;;;;22.50;51.20;;;;;;5072803;28;19916;-37
2023/07/08 00:24:40;;;;;;;;;;;22.40;51.20;;;;;;5072980;28;19913;-46
2023/07/08 00:27:07;;;;;;;;;;;22.40;51.30;;;;;;5072705;28;19947;-34
2023/07/08 00:29:33;;;;;;;;;;;22.40;51.40;;;;;;5072591;28;20393;-34
2023/07/08 00:31:58;;;;;;;;;;;22.30;51.40;;;;;;5072705;28;19951;-35
2023/07/08 00:34:24;;;;;;;;;;;22.30;51.50;;;;;;5072573;28;19938;-35
2023/07/08 00:36:49;;;;;;;;;;;22.30;51.60;;;;;;5072625;28;19958;-35
2023/07/08 00:39:15;;;;;;;;;;;22.20;51.80;;;;;;5072507;28;19913;-33
2023/07/08 00:41:41;;;;;;;;;;;22.20;51.80;;;;;;5072575;28;19912;-36
2023/07/08 00:44:09;;;;;;;;;;;22.20;52.00;;;;;;5072501;28;19942;-36
2023/07/08 00:46:53;;;;;;;;;;;22.10;52.00;;;;;;5072368;28;20350;-34
2023/07/08 00:49:24;;;;;;;;;;;22.10;52.10;;;;;;5072384;28;19970;-35
2023/07/08 00:51:50;;;;;;;;;;;22.00;52.20;;;;;;5072289;28;19913;-35
2023/07/08 00:54:17;;;;;;;;;;;22.00;52.20;;;;;;5072451;28;20441;-33
2023/07/08 00:56:53;;;;;;;;;;;22.00;52.30;;;;;;5072268;28;20057;-42
2023/07/08 00:59:19;;;;;;;;;;;21.90;52.50;;;;;;5072402;28;19952;-35
2023/07/08 01:01:45;;;;;;;;;;;21.90;52.50;;;;;;5072296;28;20280;-37
2023/07/08 01:04:13;;;;;;;;;;;21.90;52.50;;;;;;5071954;28;19962;-34
2023/07/08 01:06:41;;;;;;;;;;;21.80;52.70;;;;;;5072560;28;19948;-34
2023/07/08 01:09:10;;;;;;;;;;;21.80;52.80;;;;;;5071901;28;19955;-36
2023/07/08 01:11:37;;;;;;;;;;;21.80;52.80;;;;;;5072118;28;19919;-37
2023/07/08 01:14:04;;;;;;;;;;;21.70;52.70;;;;;;5072046;28;19947;-34
2023/07/08 01:16:33;;;;;;;;;;;21.70;52.80;;;;;;5072169;28;20049;-33
2023/07/08 01:19:04;;;;;;;;;;;21.70;52.90;;;;;;5071973;28;19912;-36
2023/07/08 01:21:32;;;;;;;;;;;21.60;53.00;;;;;;5071865;28;20202;-33
2023/07/08 01:23:57;;;;;;;;;;;21.60;53.20;;;;;;5072053;28;19935;-35
2023/07/08 01:26:24;;;;;;;;;;;21.60;53.20;;;;;;5071887;28;19913;-36
2023/07/08 01:28:50;;;;;;;;;;;21.60;53.30;;;;;;5072007;28;20322;-33
2023/07/08 01:31:16;;;;;;;;;;;21.50;53.40;;;;;;5072106;28;20003;-35
2023/07/08 01:33:41;;;;;;;;;;;21.50;53.50;;;;;;5071905;28;19970;-34
2023/07/08 01:36:10;;;;;;;;;;;21.50;53.70;;;;;;5071736;28;19917;-34
2023/07/08 01:38:36;;;;;;;;;;;21.40;53.70;;;;;;5071929;28;19912;-35
2023/07/08 01:41:01;;;;;;;;;;;21.40;53.80;;;;;;5072112;28;19979;-44
2023/07/08 01:43:27;;;;;;;;;;;21.30;53.80;;;;;;5071751;28;20295;-34
2023/07/08 01:45:53;;;;;;;;;;;21.30;54.10;;;;;;5071636;28;20367;-36
2023/07/08 01:48:20;;;;;;;;;;;21.20;54.10;;;;;;5071584;28;19935;-38
2023/07/08 01:50:57;;;;;;;;;;;21.20;54.20;;;;;;5072168;28;20015;-33
2023/07/08 01:53:27;;;;;;;;;;;21.20;54.30;;;;;;5071600;28;19912;-33
2023/07/08 01:55:53;;;;;;;;;;;21.10;54.40;;;;;;5071541;28;19959;-34
2023/07/08 01:58:18;;;;;;;;;;;21.10;55.10;;;;;;5071604;28;19964;-34
2023/07/08 02:00:44;;;;;;;;;;;21.10;54.50;;;;;;5070286;28;19946;-44
2023/07/08 02:03:10;;;;;;;;;;;21.00;54.60;;;;;;5071547;28;20013;-34
2023/07/08 02:05:35;;;;;;;;;;;21.00;54.80;;;;;;5071397;28;19919;-34
2023/07/08 02:08:01;;;;;;;;;;;21.00;55.00;;;;;;5071442;28;20003;-35
2023/07/08 02:10:26;;;;;;;;;;;20.90;54.90;;;;;;5071258;28;20368;-36
2023/07/08 02:12:52;;;;;;;;;;;21.00;54.90;;;;;;5071509;28;19995;-35
2023/07/08 02:15:17;;;;;;;;;;;20.90;55.10;;;;;;5071416;28;19919;-34
2023/07/08 02:17:43;;;;;;;;;;;20.90;55.20;;;;;;5074806;28;19912;-35
2023/07/08 02:20:08;;;;;;;;;;;20.90;55.40;;;;;;5075017;28;19919;-35
2023/07/08 02:22:34;;;;;;;;;;;20.80;55.50;;;;;;5075379;28;20437;-33
2023/07/08 02:24:59;;;;;;;;;;;20.80;55.50;;;;;;5075127;28;19913;-35
2023/07/08 02:27:25;;;;;;;;;;;20.80;55.60;;;;;;5075049;28;19921;-34
2023/07/08 02:29:50;;;;;;;;;;;20.70;55.60;;;;;;5074847;28;20172;-34
2023/07/08 02:32:17;;;;;;;;;;;20.70;55.60;;;;;;5074885;28;20363;-39
2023/07/08 02:34:43;;;;;;;;;;;20.70;55.60;;;;;;5074793;28;19912;-36
2023/07/08 02:37:08;;;;;;;;;;;20.70;55.60;;;;;;5074894;28;19978;-52
2023/07/08 02:39:34;;;;;;;;;;;20.70;55.80;;;;;;5074722;28;20678;-42
2023/07/08 02:42:00;;;;;;;;;;;20.70;55.70;;;;;;5073703;28;19912;-35
2023/07/08 02:44:26;;;;;;;;;;;20.60;55.90;;;;;;5074620;28;20049;-34
2023/07/08 02:46:51;;;;;;;;;;;20.70;56.00;;;;;;5074600;28;19966;-33
2023/07/08 02:49:17;;;;;;;;;;;20.60;56.00;;;;;;5074598;28;19937;-34
2023/07/08 02:51:42;;;;;;;;;;;20.60;56.10;;;;;;5074581;28;19913;-36
2023/07/08 02:54:08;;;;;;;;;;;20.60;56.20;;;;;;5074585;28;19920;-36
2023/07/08 02:56:33;;;;;;;;;;;20.60;56.20;;;;;;5074507;28;20332;-34
2023/07/08 02:58:59;;;;;;;;;;;20.60;56.30;;;;;;5074497;28;19913;-34
2023/07/08 03:01:26;;;;;;;;;;;20.50;56.20;;;;;;5074233;28;19943;-33
2023/07/08 03:03:56;;;;;;;;;;;20.50;56.30;;;;;;5074573;28;19916;-34
2023/07/08 03:06:22;;;;;;;;;;;20.50;56.50;;;;;;5074451;28;20003;-34
2023/07/08 03:08:47;;;;;;;;;;;20.50;56.50;;;;;;5072958;28;20007;-35
2023/07/08 03:11:15;;;;;;;;;;;20.40;56.50;;;;;;5074269;28;19921;-35
2023/07/08 03:13:41;;;;;;;;;;;20.40;56.60;;;;;;5074357;28;19983;-36
2023/07/08 03:16:12;;;;;;;;;;;20.40;56.60;;;;;;5074386;28;20390;-34
2023/07/08 03:18:45;;;;;;;;;;;20.40;56.70;;;;;;5072799;28;19919;-35
2023/07/08 03:21:12;;;;;;;;;;;20.30;56.70;;;;;;5074059;28;19913;-34
2023/07/08 03:23:38;;;;;;;;;;;20.30;56.70;;;;;;5072620;28;19920;-35
2023/07/08 03:26:03;;;;;;;;;;;20.30;56.90;;;;;;5074212;28;20380;-35
2023/07/08 03:28:28;;;;;;;;;;;20.30;57.00;;;;;;5073704;28;20001;-35
2023/07/08 03:30:54;;;;;;;;;;;20.20;57.00;;;;;;5073572;28;19921;-36
2023/07/08 03:33:20;;;;;;;;;;;20.30;57.00;;;;;;5073852;28;19912;-35
2023/07/08 03:35:45;;;;;;;;;;;20.20;57.00;;;;;;5073626;28;19918;-35
2023/07/08 03:38:11;;;;;;;;;;;20.20;57.00;;;;;;5073764;28;19919;-35
2023/07/08 03:40:36;;;;;;;;;;;20.20;57.10;;;;;;5073534;28;19912;-35
2023/07/08 03:43:02;;;;;;;;;;;20.20;57.10;;;;;;5073689;28;20407;-34
2023/07/08 03:45:27;;;;;;;;;;;20.20;57.10;;;;;;5073562;28;19908;-34
2023/07/08 03:47:53;;;;;;;;;;;20.20;57.10;;;;;;5073842;28;20319;-35
2023/07/08 03:50:20;;;;;;;;;;;20.20;57.80;;;;;;5073145;28;19948;-33
2023/07/08 03:52:49;;;;;;;;;;;20.20;57.20;;;;;;5073374;28;20391;-34
2023/07/08 03:55:14;;;;;;;;;;;20.20;57.10;;;;;;5073506;28;19936;-34
2023/07/08 03:57:40;;;;;;;;;;;20.20;57.20;;;;;;5073496;28;19909;-35
2023/07/08 04:00:09;;;;;;;;;;;20.20;57.10;;;;;;5073357;28;19935;-40
2023/07/08 04:02:38;;;;;;;;;;;20.20;57.20;;;;;;5073214;28;19919;-36
2023/07/08 04:05:03;;;;;;;;;;;20.20;57.30;;;;;;5073254;28;20015;-38
2023/07/08 04:07:29;;;;;;;;;;;20.20;57.40;;;;;;5073248;28;19996;-35
2023/07/08 04:09:54;;;;;;;;;;;20.20;57.40;;;;;;5073330;28;20307;-44
2023/07/08 04:12:20;;;;;;;;;;;20.10;57.40;;;;;;5072978;28;20314;-36
2023/07/08 04:14:45;;;;;;;;;;;20.10;58.00;;;;;;5073049;28;19909;-35
2023/07/08 04:17:11;;;;;;;;;;;20.10;57.50;;;;;;5073091;28;19908;-35
2023/07/08 04:19:39;;;;;;;;;;;20.10;57.40;;;;;;5071612;28;19915;-35
2023/07/08 04:22:05;;;;;;;;;;;20.20;58.10;;;;;;5073078;28;20008;-35
2023/07/08 04:24:31;;;;;;;;;;;20.20;57.40;;;;;;5071517;28;19909;-35
2023/07/08 04:26:56;;;;;;;;;;;20.20;57.40;;;;;;5072796;28;20376;-37
2023/07/08 04:29:22;;;;;;;;;;;20.20;57.30;;;;;;5072502;28;19920;-34
2023/07/08 04:31:48;;;;;;;;;;;20.20;57.40;;;;;;5072798;28;19908;-38
2023/07/08 04:34:14;;;;;;;;;;;20.20;57.40;;;;;;5072611;28;19909;-35
2023/07/08 04:36:40;;;;;;;;;;;20.20;57.40;;;;;;5072619;28;19934;-34
2023/07/08 04:39:06;;;;;;;;;;;20.20;57.30;;;;;;5072026;28;20329;-33
2023/07/08 04:41:32;;;;;;;;;;;20.20;57.30;;;;;;5072646;28;20351;-50
2023/07/08 04:44:02;;;;;;;;;;;20.20;57.30;;;;;;5072698;28;19909;-34
2023/07/08 04:46:37;;;;;;;;;;;20.30;57.30;;;;;;5072544;28;19912;-33
2023/07/08 04:49:03;;;;;;;;;;;20.30;57.30;;;;;;5072436;28;19909;-34
2023/07/08 04:51:29;;;;;;;;;;;20.30;57.40;;;;;;5072242;28;19912;-35
2023/07/08 04:53:54;;;;;;;;;;;20.30;57.40;;;;;;5072280;28;19950;-33
2023/07/08 04:56:20;;;;;;;;;;;20.30;57.50;;;;;;5072425;28;19912;-34
2023/07/08 04:58:45;;;;;;;;;;;20.30;57.50;;;;;;5072387;28;19915;-34
2023/07/08 05:01:11;;;;;;;;;;;20.30;57.50;;;;;;5072205;28;19981;-36
2023/07/08 05:03:36;;;;;;;;;;;20.30;57.50;;;;;;5072059;28;20372;-34
2023/07/08 05:06:02;;;;;;;;;;;20.30;57.50;;;;;;5072156;28;19908;-35
2023/07/08 05:08:27;;;;;;;;;;;20.30;57.60;;;;;;5072080;28;19908;-34
2023/07/08 05:10:52;;;;;;;;;;;20.30;57.60;;;;;;5070786;28;19999;-36
2023/07/08 05:13:18;;;;;;;;;;;20.30;57.60;;;;;;5072068;28;19909;-35
2023/07/08 05:15:43;;;;;;;;;;;20.30;57.60;;;;;;5072549;28;19969;-35
2023/07/08 05:18:09;;;;;;;;;;;20.30;57.70;;;;;;5072018;28;19915;-34
2023/07/08 05:20:36;;;;;;;;;;;20.30;57.60;;;;;;5072102;28;20054;-33
2023/07/08 05:23:02;;;;;;;;;;;20.30;57.60;;;;;;5072100;28;19915;-37
2023/07/08 05:25:31;;;;;;;;;;;20.40;57.60;;;;;;5071884;28;19908;-32
2023/07/08 05:27:57;;;;;;;;;;;20.40;57.60;;;;;;5071896;28;20279;-34
2023/07/08 05:30:22;;;;;;;;;;;20.50;57.50;;;;;;5071807;28;19920;-35
2023/07/08 05:32:47;;;;;;;;;;;20.50;57.50;;;;;;5072027;28;20425;-35
2023/07/08 05:35:13;;;;;;;;;;;20.50;57.50;;;;;;5071803;28;20280;-35
2023/07/08 05:37:39;;;;;;;;;;;20.50;57.50;;;;;;5072055;28;19908;-35
2023/07/08 05:40:06;;;;;;;;;;;20.60;57.50;;;;;;5072184;28;19912;-34
2023/07/08 05:42:32;;;;;;;;;;;20.60;57.50;;;;;;5071902;28;19909;-36
2023/07/08 05:44:57;;;;;;;;;;;20.60;57.50;;;;;;5071801;28;19932;-33
2023/07/08 05:47:23;;;;;;;;;;;20.70;57.50;;;;;;5071723;28;19908;-34
2023/07/08 05:49:49;;;;;;;;;;;20.70;57.40;;;;;;5072036;28;19966;-34
2023/07/08 05:52:14;;;;;;;;;;;20.80;57.50;;;;;;5074874;28;19920;-35
2023/07/08 05:54:41;;;;;;;;;;;20.80;57.40;;;;;;5075860;28;19940;-35
2023/07/08 05:57:09;;;;;;;;;;;20.80;57.40;;;;;;5076118;28;20283;-36
2023/07/08 05:59:35;;;;;;;;;;;20.90;57.50;;;;;;5075772;28;19909;-36
2023/07/08 06:02:00;;;;;;;;;;;20.90;57.40;;;;;;5075627;28;19915;-36
2023/07/08 06:04:26;;;;;;;;;;;20.90;57.30;;;;;;5075635;28;20486;-35
2023/07/08 06:06:52;;;;;;;;;;;21.00;57.30;;;;;;5075511;28;20276;-36
2023/07/08 06:09:17;;;;;;;;;;;21.00;57.20;;;;;;5075439;28;19953;-36
2023/07/08 06:11:43;;;;;;;;;;;21.10;57.20;;;;;;5075412;28;20013;-34
2023/07/08 06:14:08;;;;;;;;;;;21.10;57.20;;;;;;5075499;28;19913;-35
2023/07/08 06:16:34;;;;;;;;;;;21.10;57.20;;;;;;5075644;28;19912;-35
2023/07/08 06:19:00;;;;;;;;;;;21.20;57.20;;;;;;5075542;28;19931;-35
2023/07/08 06:21:26;;;;;;;;;;;21.20;57.20;;;;;;5075110;28;19916;-36
2023/07/08 06:23:51;;;;;;;;;;;21.30;57.10;;;;;;5075245;28;20029;-35
2023/07/08 06:26:16;;;;;;;;;;;21.30;57.00;;;;;;5075150;28;19908;-35
2023/07/08 06:28:42;;;;;;;;;;;21.40;57.00;;;;;;5075086;28;19909;-34
2023/07/08 06:31:08;;;;;;;;;;;21.40;57.00;;;;;;5074912;28;20057;-35
2023/07/08 06:33:33;;;;;;;;;;;21.40;56.90;;;;;;5075232;28;19999;-35
2023/07/08 06:35:59;;;;;;;;;;;21.50;57.00;;;;;;5075144;28;19912;-37
2023/07/08 06:38:24;;;;;;;;;;;21.50;57.00;;;;;;5074863;28;20350;-35
2023/07/08 06:40:49;;;;;;;;;;;21.50;57.00;;;;;;5075161;28;20437;-36
2023/07/08 06:43:15;;;;;;;;;;;21.50;57.00;;;;;;5074808;28;20066;-35
2023/07/08 06:45:41;;;;;;;;;;;21.60;57.10;;;;;;5074742;28;20335;-37
2023/07/08 06:48:06;;;;;;;;;;;21.60;57.00;;;;;;5074741;28;19912;-36
2023/07/08 06:50:32;;;;;;;;;;;21.60;57.10;;;;;;5074522;28;19920;-39
2023/07/08 06:52:57;;;;;;;;;;;21.60;57.10;;;;;;5074615;28;20453;-35
2023/07/08 06:55:23;;;;;;;;;;;21.70;57.00;;;;;;5074513;28;19920;-34
2023/07/08 06:57:48;;;;;;;;;;;21.70;56.90;;;;;;5074389;28;19962;-36
2023/07/08 07:00:14;;;;;;;;;;;21.80;57.00;;;;;;5074600;28;20336;-35
2023/07/08 07:02:40;;;;;;;;;;;21.90;57.00;;;;;;5073858;28;19912;-38
2023/07/08 07:05:05;;;;;;;;;;;22.00;56.90;;;;;;5074446;28;19962;-35
2023/07/08 07:07:31;;;;;;;;;;;22.00;56.90;;;;;;5074540;28;19912;-34
2023/07/08 07:09:57;;;;;;;;;;;22.10;56.80;;;;;;5074435;28;20041;-34
2023/07/08 07:12:25;;;;;;;;;;;22.10;56.70;;;;;;5074661;28;20297;-36
2023/07/08 07:14:52;;;;;;;;;;;22.20;56.70;;;;;;5074560;28;19995;-36
2023/07/08 07:17:22;;;;;;;;;;;22.30;56.70;;;;;;5074060;28;19912;-34
2023/07/08 07:19:47;;;;;;;;;;;22.30;56.60;;;;;;5074667;28;20387;-35
2023/07/08 07:22:13;;;;;;;;;;;22.40;56.70;;;;;;5074328;28;19947;-35
2023/07/08 07:24:39;;;;;;;;;;;22.40;56.60;;;;;;5073912;28;19920;-35
2023/07/08 07:27:04;;;;;;;;;;;22.60;56.70;;;;;;5073879;28;19923;-35
2023/07/08 07:29:37;;;;;;;;;;;22.60;56.60;;;;;;5073776;28;20438;-35
2023/07/08 07:32:03;;;;;;;;;;;22.60;56.50;;;;;;5073809;28;19912;-35
2023/07/08 07:34:28;;;;;;;;;;;22.70;56.50;;;;;;5073803;28;19996;-35
2023/07/08 07:36:54;;;;;;;;;;;22.80;56.60;;;;;;5073742;28;20053;-35
2023/07/08 07:39:19;;;;;;;;;;;22.80;56.50;;;;;;5073721;28;20433;-36
2023/07/08 07:41:45;;;;;;;;;;;22.90;56.40;;;;;;5073661;28;19912;-35
2023/07/08 07:44:10;;;;;;;;;;;23.00;56.30;;;;;;5073885;28;20338;-34
2023/07/08 07:46:36;;;;;;;;;;;23.00;56.20;;;;;;5073612;28;19912;-36
2023/07/08 07:49:01;;;;;;;;;;;23.10;56.20;;;;;;5073663;28;20459;-36
2023/07/08 07:51:27;;;;;;;;;;;23.20;56.10;;;;;;5073592;28;19917;-36
2023/07/08 07:53:52;;;;;;;;;;;23.20;56.10;;;;;;5073495;28;19913;-36
2023/07/08 07:56:18;;;;;;;;;;;23.30;56.20;;;;;;5073794;28;20376;-39
2023/07/08 07:58:43;;;;;;;;;;;23.40;56.20;;;;;;5073671;28;19913;-45
2023/07/08 08:01:09;;;;;;;;;;;23.50;56.10;;;;;;5073223;28;20020;-34
2023/07/08 08:03:34;;;;;;;;;;;23.50;56.00;;;;;;5072398;28;20394;-34
2023/07/08 08:06:00;;;;;;;;;;;23.60;55.90;;;;;;5070797;28;19957;-33
2023/07/08 08:08:26;;;;;;;;;;;23.70;55.80;;;;;;5072337;28;19919;-35
2023/07/08 08:10:51;;;;;;;;;;;23.80;55.80;;;;;;5071966;28;19943;-35
2023/07/08 08:13:17;;;;;;;;;;;23.80;55.70;;;;;;5071652;28;19913;-34
2023/07/08 08:15:42;;;;;;;;;;;23.90;55.70;;;;;;5071745;28;19920;-36
2023/07/08 08:18:08;;;;;;;;;;;24.00;55.60;;;;;;5073107;28;19920;-35
2023/07/08 08:20:33;;;;;;;;;;;24.10;55.90;;;;;;5072867;28;20310;-36
2023/07/08 08:22:59;;;;;;;;;;;24.20;55.70;;;;;;5071752;28;19912;-35
2023/07/08 08:25:24;;;;;;;;;;;24.20;55.60;;;;;;5073054;28;19938;-35
2023/07/08 08:27:52;;;;;;;;;;;24.30;55.60;;;;;;5073109;28;19962;-36
2023/07/08 08:30:17;;;;;;;;;;;24.30;55.60;;;;;;5072588;28;20346;-36
2023/07/08 08:32:43;;;;;;;;;;;24.40;55.70;;;;;;5071614;28;19913;-40
2023/07/08 08:35:08;;;;;;;;;;;24.40;55.60;;;;;;5072985;28;19913;-36
2023/07/08 08:37:34;;;;;;;;;;;24.50;55.60;;;;;;5072908;28;19912;-36
2023/07/08 08:39:59;;;;;;;;;;;24.50;55.50;;;;;;5072659;28;19913;-34
2023/07/08 08:42:27;;;;;;;;;;;24.60;55.50;;;;;;5072568;28;19916;-36
2023/07/08 08:44:53;;;;;;;;;;;24.60;55.50;;;;;;5072715;28;19916;-35
2023/07/08 08:47:31;;;;;;;;;;;24.70;55.40;;;;;;5072468;28;19962;-36
2023/07/08 08:50:00;;;;;;;;;;;24.80;55.50;;;;;;5072338;28;20003;-36
2023/07/08 08:52:26;;;;;;;;;;;24.80;55.30;;;;;;5071152;28;20010;-36
2023/07/08 08:54:51;;;;;;;;;;;24.90;55.20;;;;;;5072741;28;20432;-36
2023/07/08 08:57:20;;;;;;;;;;;25.00;55.10;;;;;;5072605;28;19918;-36
2023/07/08 09:00:03;;;;;;;;;;;25.10;55.10;;;;;;5072518;28;19916;-36
2023/07/08 09:02:29;;;;;;;;;;;25.20;55.10;;;;;;5072463;28;19912;-36
2023/07/08 09:04:56;;;;;;;;;;;25.20;55.00;;;;;;5072445;28;20364;-37
2023/07/08 09:07:22;;;;;;;;;;;25.30;55.00;;;;;;5072160;28;19935;-35
2023/07/08 09:10:00;;;;;;;;;;;25.40;55.00;;;;;;5072473;28;19917;-35
2023/07/08 09:12:27;;;;;;;;;;;25.40;54.90;;;;;;5072185;28;19912;-37
2023/07/08 09:14:53;;;;;;;;;;;25.50;54.90;;;;;;5072009;28;20006;-37
2023/07/08 09:17:34;;;;;;;;;;;25.60;54.90;;;;;;5071913;28;19913;-41
2023/07/08 09:20:02;;;;;;;;;;;25.70;55.00;;;;;;5072454;28;20280;-36
2023/07/08 09:22:36;;;;;;;;;;;25.80;55.00;;;;;;5072012;28;19912;-36
2023/07/08 09:25:11;;;;;;;;;;;25.80;55.00;;;;;;5072157;28;19920;-34
2023/07/08 09:27:37;;;;;;;;;;;25.90;55.10;;;;;;5071948;28;20010;-35
2023/07/08 09:30:02;;;;;;;;;;;25.90;55.00;;;;;;5071787;28;20363;-35
2023/07/08 09:32:28;;;;;;;;;;;26.00;55.00;;;;;;5072383;28;19954;-38
2023/07/08 09:35:04;;;;;;;;;;;26.10;55.10;;;;;;5072230;28;20288;-36
2023/07/08 09:37:31;;;;;;;;;;;26.10;54.90;;;;;;5072078;28;19919;-33
2023/07/08 09:39:58;;;;;;;;;;;26.20;55.00;;;;;;5072151;28;19920;-37
2023/07/08 09:42:31;;;;;;;;;;;26.30;54.90;;;;;;5071779;28;19912;-47
2023/07/08 09:44:58;;;;;;;;;;;26.30;54.80;;;;;;5071688;28;19917;-35
2023/07/08 09:47:26;;;;;;;;;;;26.40;54.70;;;;;;5072161;28;19999;-37
2023/07/08 09:49:52;;;;;;;;;;;26.50;54.60;;;;;;5071635;28;19963;-35
2023/07/08 09:52:17;;;;;;;;;;;26.60;54.50;;;;;;5071704;28;19993;-38
2023/07/08 09:54:44;;;;;;;;;;;26.70;54.50;;;;;;5071951;28;19913;-43
2023/07/08 09:57:30;;;;;;;;;;;26.70;54.40;;;;;;5071623;28;19913;-42
2023/07/08 09:59:58;;;;;;;;;;;26.90;54.30;;;;;;5071665;28;19913;-34
2023/07/08 10:02:28;;;;;;;;;;;27.00;54.20;;;;;;5071295;28;19920;-35
2023/07/08 10:04:55;;;;;;;;;;;27.00;54.10;;;;;;5071900;28;19913;-35
2023/07/08 10:07:21;;;;;;;;;;;27.10;54.00;;;;;;5071657;28;19912;-35
2023/07/08 10:09:49;;;;;;;;;;;27.10;53.90;;;;;;5071453;28;20403;-35
2023/07/08 10:12:15;;;;;;;;;;;27.20;53.90;;;;;;5071871;28;20424;-35
2023/07/08 10:14:44;;;;;;;;;;;27.30;53.80;;;;;;5070095;28;20003;-36
2023/07/08 10:17:13;;;;;;;;;;;27.40;53.70;;;;;;5071624;28;19912;-36
2023/07/08 10:19:39;;;;;;;;;;;27.50;53.60;;;;;;5071433;28;19919;-35
2023/07/08 10:22:11;;;;;;;;;;;27.60;53.50;;;;;;5070182;28;19916;-34
2023/07/08 10:24:55;;;;;;;;;;;27.70;53.40;;;;;;5071657;28;19916;-38
2023/07/08 10:27:23;;;;;;;;;;;27.90;53.40;;;;;;5071441;28;19959;-36
2023/07/08 10:30:07;;;;;;;;;;;27.90;53.20;;;;;;5071265;28;20412;-37
2023/07/08 10:32:35;;;;;;;;;;;28.00;53.10;;;;;;5071297;28;19917;-35
2023/07/08 10:35:27;;;;;;;;;;;28.10;53.10;;;;;;5071274;28;19913;-39
2023/07/08 10:38:11;;;;;;;;;;;28.20;53.00;;;;;;5072946;28;19909;-35
2023/07/08 10:40:47;;;;;;;;;;;28.30;53.00;;;;;;5074645;28;19957;-36
2023/07/08 10:43:18;;;;;;;;;;;28.40;52.80;;;;;;5074860;28;19909;-35
2023/07/08 10:45:56;;;;;;;;;;;28.50;52.70;;;;;;5074741;28;19908;-34
2023/07/08 10:48:31;;;;;;;;;;;28.60;52.60;;;;;;5074666;28;19909;-36
2023/07/08 10:51:03;;;;;;;;;;;28.70;52.50;;;;;;5074644;28;20544;-35
2023/07/08 10:53:44;;;;;;;;;;;28.80;52.30;;;;;;5074841;28;20292;-35
2023/07/08 10:56:09;;;;;;;;;;;28.90;52.20;;;;;;5074452;28;19909;-35
2023/07/08 10:58:43;;;;;;;;;;;29.00;52.20;;;;;;5074466;28;20053;-35
2023/07/08 11:01:24;;;;;;;;;;;29.10;52.20;;;;;;5074333;28;19909;-34
2023/07/08 11:04:08;;;;;;;;;;;29.10;52.10;;;;;;5074159;28;19915;-34
2023/07/08 11:06:38;;;;;;;;;;;29.30;52.00;;;;;;5074067;28;20447;-37
2023/07/08 11:09:05;;;;;;;;;;;29.40;52.00;;;;;;5074410;28;19915;-35
2023/07/08 11:11:31;;;;;;;;;;;29.50;51.90;;;;;;5074484;28;19912;-36
2023/07/08 11:14:02;;;;;;;;;;;29.50;51.70;;;;;;5074145;28;20253;-36
2023/07/08 11:16:36;;;;;;;;;;;29.70;51.80;;;;;;5074195;28;19952;-33
2023/07/08 11:19:10;;;;;;;;;;;29.70;51.60;;;;;;5074185;28;19909;-36
2023/07/08 11:21:39;;;;;;;;;;;29.80;51.50;;;;;;5073959;28;19980;-34
2023/07/08 11:24:14;;;;;;;;;;;29.80;51.50;;;;;;5074004;28;20025;-36
2023/07/08 11:26:56;;;;;;;;;;;29.90;51.40;;;;;;5073840;28;19908;-35
2023/07/08 11:29:32;;;;;;;;;;;30.00;51.40;;;;;;5073751;28;19916;-35
2023/07/08 11:31:58;;;;;;;;;;;30.00;51.20;;;;;;5072462;28;19908;-37
2023/07/08 11:34:25;;;;;;;;;;;30.20;51.30;;;;;;5073819;28;19928;-36
2023/07/08 11:36:51;;;;;;;;;;;30.30;51.20;;;;;;5073719;28;19958;-50
2023/07/08 11:39:35;;;;;;;;;;;30.30;51.00;;;;;;5073613;28;19936;-42
2023/07/08 11:42:14;;;;;;;;;;;30.40;50.90;;;;;;5073600;28;20003;-35
2023/07/08 11:44:44;;;;;;;;;;;30.50;50.70;;;;;;5073942;28;20031;-35
2023/07/08 11:47:17;;;;;;;;;;;30.60;50.50;;;;;;5073610;28;19934;-35
2023/07/08 11:49:43;;;;;;;;;;;30.70;50.60;;;;;;5073732;28;20009;-35
2023/07/08 11:52:13;;;;;;;;;;;30.80;50.60;;;;;;5073612;28;19912;-36
2023/07/08 11:54:42;;;;;;;;;;;30.80;50.40;;;;;;5073449;28;19909;-36
2023/07/08 11:57:16;;;;;;;;;;;31.00;50.50;;;;;;5073414;28;19915;-37
2023/07/08 11:59:42;;;;;;;;;;;31.00;50.30;;;;;;5073375;28;20314;-34
2023/07/08 12:02:13;;;;;;;;;;;31.20;50.30;;;;;;5073611;28;19916;-36
2023/07/08 12:04:54;;;;;;;;;;;31.30;50.10;;;;;;5073631;28;19912;-36
2023/07/08 12:07:28;;;;;;;;;;;31.40;50.00;;;;;;5073235;28;19953;-36
2023/07/08 12:09:57;;;;;;;;;;;31.50;49.90;;;;;;5073028;28;19920;-35
2023/07/08 12:12:34;;;;;;;;;;;31.60;49.80;;;;;;5073344;28;19915;-36
2023/07/08 12:15:20;;;;;;;;;;;31.70;49.60;;;;;;5073518;28;19908;-36
2023/07/08 12:17:46;;;;;;;;;;;31.80;49.60;;;;;;5072653;28;20343;-35
2023/07/08 12:20:21;;;;;;;;;;;31.90;49.50;;;;;;5073265;28;19980;-35
2023/07/08 12:22:46;;;;;;;;;;;32.00;49.30;;;;;;5072790;28;19995;-35
2023/07/08 12:25:13;;;;;;;;;;;32.00;49.10;;;;;;5072777;28;19955;-35
2023/07/08 12:27:38;;;;;;;;;;;32.00;48.90;;;;;;5072751;28;20257;-36
2023/07/08 12:30:04;;;;;;;;;;;32.10;49.00;;;;;;5072637;28;19932;-35
2023/07/08 12:32:30;;;;;;;;;;;32.20;49.00;;;;;;5072623;28;20360;-35
2023/07/08 12:34:55;;;;;;;;;;;32.30;48.90;;;;;;5072625;28;19916;-35
2023/07/08 12:37:21;;;;;;;;;;;32.30;48.70;;;;;;5072623;28;20003;-36
2023/07/08 12:39:59;;;;;;;;;;;32.40;48.60;;;;;;5072418;28;20003;-35
2023/07/08 12:42:25;;;;;;;;;;;32.50;48.60;;;;;;5071184;28;20057;-34
2023/07/08 12:44:50;;;;;;;;;;;32.70;48.70;;;;;;5072413;28;19951;-35
2023/07/08 12:47:16;;;;;;;;;;;32.70;48.40;;;;;;5072751;28;19908;-35
2023/07/08 12:49:42;;;;;;;;;;;32.70;48.30;;;;;;5072436;28;19942;-37
2023/07/08 12:52:18;;;;;;;;;;;32.80;48.20;;;;;;5072267;28;19953;-35
2023/07/08 12:54:43;;;;;;;;;;;32.80;48.10;;;;;;5072284;28;20380;-34
2023/07/08 12:57:09;;;;;;;;;;;32.90;48.00;;;;;;5072304;28;19909;-39
2023/07/08 12:59:35;;;;;;;;;;;33.00;47.90;;;;;;5070920;28;20364;-35
2023/07/08 13:02:00;;;;;;;;;;;33.10;47.60;;;;;;5072426;28;20397;-33
2023/07/08 13:04:26;;;;;;;;;;;33.20;47.60;;;;;;5072171;28;19955;-34
2023/07/08 13:06:52;;;;;;;;;;;33.30;47.40;;;;;;5072207;28;20364;-34
2023/07/08 13:09:30;;;;;;;;;;;33.30;47.30;;;;;;5071985;28;19992;-35
2023/07/08 13:11:56;;;;;;;;;;;33.40;47.30;;;;;;5072379;28;19908;-34
2023/07/08 13:14:22;;;;;;;;;;;33.60;47.30;;;;;;5072158;28;19955;-34
2023/07/08 13:16:49;;;;;;;;;;;33.60;46.90;;;;;;5071982;28;19947;-34
2023/07/08 13:19:14;;;;;;;;;;;33.70;46.60;;;;;;5070593;28;19999;-35
2023/07/08 13:21:40;;;;;;;;;;;33.80;46.70;;;;;;5071947;28;19948;-36
2023/07/08 13:24:12;;;;;;;;;;;33.90;46.70;;;;;;5072080;28;20386;-37
2023/07/08 13:26:38;;;;;;;;;;;34.10;46.70;;;;;;5071974;28;20015;-34
2023/07/08 13:29:07;;;;;;;;;;;34.10;47.00;;;;;;5071850;28;19908;-35
2023/07/08 13:31:34;;;;;;;;;;;34.20;46.40;;;;;;5071757;28;19913;-34
2023/07/08 13:34:05;;;;;;;;;;;34.20;46.00;;;;;;5072097;28;19931;-34
2023/07/08 13:36:36;;;;;;;;;;;34.30;46.20;;;;;;5071825;28;19962;-33
2023/07/08 13:39:04;;;;;;;;;;;34.40;46.20;;;;;;5072248;28;19944;-35
2023/07/08 13:41:29;;;;;;;;;;;34.50;46.00;;;;;;5071840;28;19908;-34
2023/07/08 13:43:55;;;;;;;;;;;34.60;46.00;;;;;;5071837;28;19916;-40
2023/07/08 13:46:33;;;;;;;;;;;34.80;45.90;;;;;;5071863;28;20352;-36
2023/07/08 13:49:00;;;;;;;;;;;34.80;45.80;;;;;;5071693;28;19909;-37
2023/07/08 13:51:29;;;;;;;;;;;34.90;45.60;;;;;;5071482;28;19919;-36
2023/07/08 13:53:58;;;;;;;;;;;35.10;45.40;;;;;;5071832;28;19908;-33
2023/07/08 13:56:27;;;;;;;;;;;35.10;45.20;;;;;;5071488;28;19909;-36
2023/07/08 13:58:59;;;;;;;;;;;35.20;45.30;;;;;;5070173;28;19909;-36
2023/07/08 14:01:25;;;;;;;;;;;35.20;45.20;;;;;;5071448;28;19920;-35
2023/07/08 14:03:51;;;;;;;;;;;35.30;45.20;;;;;;5071357;28;19912;-35
2023/07/08 14:06:18;;;;;;;;;;;35.40;45.10;;;;;;5071652;28;19908;-36
2023/07/08 14:08:44;;;;;;;;;;;35.50;45.00;;;;;;5071291;28;19991;-35
2023/07/08 14:11:09;;;;;;;;;;;35.50;44.80;;;;;;5071457;28;20004;-36
2023/07/08 14:13:34;;;;;;;;;;;35.60;44.50;;;;;;5074645;28;19938;-36
2023/07/08 14:16:01;;;;;;;;;;;35.60;44.60;;;;;;5075267;28;20424;-36
2023/07/08 14:18:27;;;;;;;;;;;35.70;44.30;;;;;;5075145;28;19948;-36